Decoded Metar for UMOO (MOGILEV in BELARUS) (IATA:N/A) | Meteo·Mobile Aviation Weather
aviador You're here:

UMOO Decoded Metar

MOGILEV in BELARUS
Report Time2018-12-16 09:30:00
UTC Time2018-12-16 10:01:40
Flight Rules ifr IFR
Wind120° at 14 kt
W.Decomp.*RWY 13: 13.3 kt HW 4.3 kt LCW
W.Rank120° ranks 18
Current wind is above 120° avg. (7.1)
Visibility8000 m
Phenomena:N/A
Clouds:Overcast 005 Hf
Expected CloudBase > 400 ft AGL from Temp-Dew spread
Ceiling500 ft
Temp-3°C (ISA -17)
Dew Point-4°C (93% RH)
AAT-10.5°C
QNH1032 hPa
Density Alt-2,001 ft
Elevation636 ft
Report Wrong Elevation
Raw Report
UMOO 160930Z 12007MPS 8000 OVC005 M03/M04 Q1032 R14/720329 NOSIG
RMK QBB160=

Extra information for UMOO:More info

Metar Taf Metar & Taf Last 4 Metars F.Rules Stats Wind Profile Meteogram Temp Stats Airport Information Weather charts Add Link Nearby VenuesMetar ALERT Operation Metar Decoded Social comments